Time;durP1;ratioP1;P1;durP2;ratioP2;P2;SDS_P1;SDS_P2;PMS_P1;PMS_P2;Temp;Humidity;BMP_temperature;BMP_pressure;BME280_temperature;BME280_humidity;BME280_pressure;Samples;Min_cycle;Max_cycle;Signal;HPM_P1;HPM_P2
2023/01/03 00:00:49;;;;;;;1.90;1.77;;;;;;;8.36;86.00;101518.50;5046219;28;20232;-79
2023/01/03 00:03:16;;;;;;;3.20;1.97;;;;;;;8.23;87.09;101501.06;5048632;28;20236;-80
2023/01/03 00:05:43;;;;;;;2.87;2.60;;;;;;;8.18;87.69;101471.53;5046714;28;20208;-79
2023/01/03 00:08:10;;;;;;;5.73;2.80;;;;;;;8.12;89.61;101429.00;5050499;28;20290;-80
2023/01/03 00:10:37;;;;;;;3.07;2.20;;;;;;;7.78;91.05;101383.72;5046110;28;20198;-81
2023/01/03 00:13:04;;;;;;;4.07;2.50;;;;;;;7.46;92.76;101353.13;5045893;28;20206;-79
2023/01/03 00:15:34;;;;;;;3.80;2.40;;;;;;;7.47;93.43;101307.25;5048643;28;20193;-78
2023/01/03 00:18:00;;;;;;;3.67;2.63;;;;;;;7.42;93.94;101291.63;5051916;28;20718;-78
2023/01/03 00:20:27;;;;;;;4.10;2.30;;;;;;;7.36;94.25;101266.47;5055575;28;20254;-78
2023/01/03 00:22:53;;;;;;;3.30;2.70;;;;;;;7.43;94.53;101277.75;5045867;28;20225;-77
2023/01/03 00:25:19;;;;;;;3.57;2.83;;;;;;;7.19;95.28;101267.19;5046017;28;20638;-77
2023/01/03 00:27:46;;;;;;;4.20;2.90;;;;;;;7.28;95.68;101249.09;5046285;28;20645;-78
2023/01/03 00:30:14;;;;;;;6.90;3.03;;;;;;;7.19;95.97;101230.84;5046177;28;20592;-78
2023/01/03 00:32:40;;;;;;;2.57;2.37;;;;;;;7.20;96.67;101228.28;5046151;28;20221;-77
2023/01/03 00:35:08;;;;;;;3.33;3.03;;;;;;;7.03;96.43;101227.25;5043268;28;20210;-75
2023/01/03 00:37:34;;;;;;;4.53;3.17;;;;;;;7.06;96.63;101222.97;5046592;28;20241;-79
2023/01/03 00:40:00;;;;;;;2.80;2.60;;;;;;;6.96;94.77;101244.53;5045835;28;20252;-78
2023/01/03 00:42:27;;;;;;;3.77;2.63;;;;;;;7.06;94.29;101261.03;5043688;28;20299;-77
2023/01/03 00:44:53;;;;;;;4.17;1.97;;;;;;;6.99;92.27;101317.22;5046831;28;20255;-78
2023/01/03 00:47:21;;;;;;;2.77;2.30;;;;;;;6.95;91.01;101341.38;5047255;28;20260;-78
2023/01/03 00:49:47;;;;;;;4.00;2.20;;;;;;;6.98;91.05;101357.00;5054033;28;20207;-77
2023/01/03 00:52:14;;;;;;;4.23;2.10;;;;;;;7.02;90.68;101392.53;5046708;28;20733;-78
2023/01/03 00:54:40;;;;;;;2.57;1.97;;;;;;;6.96;90.11;101403.72;5045655;28;20656;-79
2023/01/03 00:57:06;;;;;;;5.30;2.30;;;;;;;6.93;89.66;101411.44;5046618;28;20599;-78
2023/01/03 00:59:33;;;;;;;5.13;2.20;;;;;;;7.00;90.32;101414.09;5045663;28;20255;-78
2023/01/03 01:01:59;;;;;;;4.00;2.40;;;;;;;6.90;90.79;101402.78;5044120;28;20198;-77
2023/01/03 01:04:28;;;;;;;3.63;1.67;;;;;;;6.94;91.63;101394.16;5044162;28;20205;-78
2023/01/03 01:06:57;;;;;;;3.20;2.00;;;;;;;6.90;91.28;101389.81;5045788;28;20219;-78
2023/01/03 01:09:27;;;;;;;3.83;2.00;;;;;;;7.07;91.19;101392.56;5045363;28;20206;-77
2023/01/03 01:11:54;;;;;;;4.80;2.43;;;;;;;7.00;89.99;101415.00;5045305;28;20194;-79
2023/01/03 01:14:24;;;;;;;3.43;2.07;;;;;;;7.08;91.37;101415.09;5045269;28;20260;-77
2023/01/03 01:16:53;;;;;;;6.47;2.77;;;;;;;7.10;90.16;101439.34;5054193;28;20202;-79
2023/01/03 01:19:24;;;;;;;4.73;2.23;;;;;;;7.00;89.23;101466.03;5056185;28;20202;-80
2023/01/03 01:21:52;;;;;;;2.57;2.07;;;;;;;6.96;90.06;101467.75;5056108;28;20746;-78
2023/01/03 01:24:18;;;;;;;3.53;2.07;;;;;;;7.10;90.87;101449.72;5056735;28;20253;-78
2023/01/03 01:26:45;;;;;;;3.27;2.00;;;;;;;6.89;91.36;101437.34;5056774;28;20202;-80
2023/01/03 01:29:13;;;;;;;5.50;2.60;;;;;;;6.81;91.61;101426.88;5056685;28;20226;-80
2023/01/03 01:31:39;;;;;;;3.93;2.40;;;;;;;6.70;92.51;101408.59;5056655;28;20201;-80
2023/01/03 01:34:06;;;;;;;3.07;2.13;;;;;;;6.83;93.02;101393.16;5056218;28;20236;-79
2023/01/03 01:36:36;;;;;;;2.93;2.53;;;;;;;6.85;94.68;101370.69;5057052;28;20202;-80
2023/01/03 01:39:06;;;;;;;3.30;3.00;;;;;;;6.78;95.11;101359.38;5056777;28;20320;-80
2023/01/03 01:44:47;;;;;;;6.33;3.93;;;;;;;6.67;94.87;101338.50;4994582;28;20239;-81
2023/01/03 01:47:20;;;;;;;4.17;3.77;;;;;;;6.63;95.52;101328.94;4995069;28;20294;-79
2023/01/03 01:49:49;;;;;;;5.40;4.10;;;;;;;6.64;95.59;101322.91;5029447;28;20206;-80
2023/01/03 01:52:18;;;;;;;4.30;3.90;;;;;;;6.62;95.44;101322.03;5056160;28;20205;-80
2023/01/03 01:54:47;;;;;;;6.13;5.17;;;;;;;6.78;96.06;101324.75;5056526;28;20205;-80
2023/01/03 01:57:16;;;;;;;4.43;4.03;;;;;;;6.58;95.79;101328.03;5054899;28;20233;-80
2023/01/03 01:59:43;;;;;;;5.13;4.03;;;;;;;6.51;95.84;101333.97;5056440;28;20315;-79
2023/01/03 02:02:10;;;;;;;6.57;4.13;;;;;;;6.39;96.00;101336.44;5056121;28;20209;-81
2023/01/03 02:04:39;;;;;;;4.77;4.37;;;;;;;6.38;95.63;101326.91;5056093;28;20641;-80
2023/01/03 02:07:06;;;;;;;5.43;3.90;;;;;;;6.38;96.06;101319.97;5056340;28;20205;-79
2023/01/03 02:09:34;;;;;;;5.10;4.13;;;;;;;6.60;96.11;101315.06;5055669;28;20224;-79
2023/01/03 02:15:07;;;;;;;6.87;5.00;;;;;;;6.41;94.60;101358.06;5056461;28;20275;-79
2023/01/03 02:17:40;;;;;;;4.60;4.30;;;;;;;6.48;94.09;101371.13;5055498;28;20232;-80
2023/01/03 02:20:27;;;;;;;6.23;4.60;;;;;;;6.62;94.37;101370.41;5054849;28;20247;-80
2023/01/03 02:23:37;;;;;;;7.87;5.70;;;;;;;6.61;93.10;101398.09;5055702;28;20580;-78
2023/01/03 02:26:36;;;;;;;5.70;5.20;;;;;;;6.62;92.94;101405.03;5013395;28;20207;-80
2023/01/03 02:29:39;;;;;;;5.70;5.20;;;;;;;6.38;93.29;101408.16;5013594;28;20284;-79
2023/01/03 02:32:13;;;;;;;7.57;5.83;;;;;;;6.39;93.44;101394.34;5051005;28;20590;-80
2023/01/03 02:34:47;;;;;;;5.70;5.20;;;;;;;6.25;92.48;101419.22;5055598;28;20634;-80
2023/01/03 02:37:22;;;;;;;6.47;5.87;;;;;;;6.24;93.75;101412.28;5055155;28;20241;-79
2023/01/03 02:39:57;;;;;;;7.30;5.93;;;;;;;6.36;93.84;101397.78;5055173;28;20208;-78
2023/01/03 02:45:20;;;;;;;6.33;5.73;;;;;;;6.41;93.91;101410.78;5048709;28;20194;-79
2023/01/03 02:47:54;;;;;;;6.77;5.70;;;;;;;6.52;92.51;101421.31;5054788;28;20230;-79
2023/01/03 02:50:24;;;;;;;10.83;5.73;;;;;;;6.56;91.95;101436.94;5054779;28;20204;-80
2023/01/03 02:52:54;;;;;;;6.47;5.87;;;;;;;6.61;91.46;101446.50;5055193;28;20205;-79
2023/01/03 02:55:24;;;;;;;6.23;5.57;;;;;;;6.46;91.79;101460.13;5055320;28;20236;-79
2023/01/03 02:57:56;;;;;;;7.60;5.90;;;;;;;6.44;91.60;101456.63;5054989;28;20225;-80
2023/01/03 03:00:25;;;;;;;10.60;6.63;;;;;;;6.46;91.51;101462.72;5054675;28;20209;-80
2023/01/03 03:02:58;;;;;;;8.20;7.13;;;;;;;6.59;91.94;101468.97;5055065;28;20295;-80
2023/01/03 03:05:28;;;;;;;7.37;6.50;;;;;;;6.41;91.62;101475.63;5054342;28;20205;-81
2023/01/03 03:07:54;;;;;;;8.67;7.23;;;;;;;6.26;92.32;101465.00;5055441;28;20221;-79
2023/01/03 03:13:13;;;;;;;7.97;7.30;;;;;;;5.85;93.16;101453.13;5061607;28;20266;-80
2023/01/03 03:15:45;;;;;;;8.97;7.00;;;;;;;6.07;92.90;101435.38;5061897;28;20205;-80
2023/01/03 03:18:17;;;;;;;7.70;6.90;;;;;;;6.07;92.65;101446.59;5061347;28;20225;-80
2023/01/03 03:26:21;;;;;;;7.80;7.10;;;;;;;6.04;93.30;101445.66;5061557;28;20202;-80
2023/01/03 03:28:53;;;;;;;7.77;7.03;;;;;;;6.05;92.51;101447.44;5061291;28;20225;-81
2023/01/03 03:31:25;;;;;;;6.57;6.07;;;;;;;6.14;92.08;101450.16;5061109;28;20702;-80
2023/01/03 03:34:02;;;;;;;7.47;6.77;;;;;;;6.15;92.47;101457.09;5061429;28;20213;-80
2023/01/03 03:36:35;;;;;;;7.00;6.13;;;;;;;6.30;92.05;101469.41;5062353;28;20208;-81
2023/01/03 03:39:02;;;;;;;7.23;6.53;;;;;;;6.37;90.68;101494.59;5061661;28;20723;-81
2023/01/03 03:47:30;;;;;;;6.43;5.83;;;;;;;6.50;88.69;101550.09;5014530;28;20387;-81
2023/01/03 03:50:03;;;;;;;6.03;5.47;;;;;;;6.51;88.92;101572.59;5053478;28;20193;-78
2023/01/03 03:52:32;;;;;;;6.47;5.97;;;;;;;6.47;87.75;101587.25;5062163;28;20624;-81
2023/01/03 03:55:03;;;;;;;7.97;7.20;;;;;;;6.45;87.81;101603.63;5061810;28;20220;-81
2023/01/03 03:57:33;;;;;;;6.57;6.03;;;;;;;6.45;87.44;101599.31;5061874;28;20226;-80
2023/01/03 04:00:04;;;;;;;7.20;6.50;;;;;;;6.42;88.21;101609.66;5061207;28;20263;-80
2023/01/03 04:02:32;;;;;;;8.10;7.07;;;;;;;6.32;88.66;101616.41;5062071;28;20201;-80
2023/01/03 04:05:06;;;;;;;6.63;5.93;;;;;;;6.31;89.47;101595.63;5061595;28;20298;-80
2023/01/03 04:07:33;;;;;;;6.93;5.83;;;;;;;6.35;88.95;101589.63;5061708;28;20225;-80
2023/01/03 04:09:59;;;;;;;6.40;5.80;;;;;;;6.35;88.43;101600.88;5061595;28;20208;-80
2023/01/03 04:12:26;;;;;;;6.70;6.10;;;;;;;6.36;88.81;101599.16;5061766;28;20744;-80
2023/01/03 04:14:52;;;;;;;7.77;7.07;;;;;;;6.13;90.25;101578.03;5061872;28;20201;-79
2023/01/03 04:17:18;;;;;;;8.93;7.40;;;;;;;5.99;91.19;101546.69;5061503;28;20279;-80
2023/01/03 04:19:45;;;;;;;10.37;8.33;;;;;;;6.08;91.62;101515.72;5060429;28;20205;-79
2023/01/03 04:22:12;;;;;;;7.83;7.23;;;;;;;6.02;91.65;101517.34;5058586;28;20233;-80
2023/01/03 04:24:39;;;;;;;8.53;7.13;;;;;;;6.05;91.11;101520.88;5058356;28;20229;-79
2023/01/03 04:27:05;;;;;;;9.17;6.37;;;;;;;6.14;89.65;101538.28;5058631;28;20206;-80
2023/01/03 04:29:31;;;;;;;6.47;5.87;;;;;;;6.16;89.35;101567.69;5058418;28;20209;-80
2023/01/03 04:31:57;;;;;;;7.83;7.13;;;;;;;6.16;89.01;101572.88;5057594;28;20206;-79
2023/01/03 04:34:24;;;;;;;6.00;5.50;;;;;;;6.17;89.13;101577.22;5058070;28;20206;-80
2023/01/03 04:36:50;;;;;;;10.10;7.60;;;;;;;6.17;89.25;101579.81;5058325;28;20202;-80
2023/01/03 04:39:18;;;;;;;9.03;7.10;;;;;;;6.18;89.40;101576.38;5058421;28;20217;-80
2023/01/03 04:41:44;;;;;;;7.87;7.03;;;;;;;6.21;89.16;101579.03;5057472;28;20201;-79
2023/01/03 04:44:10;;;;;;;8.00;6.87;;;;;;;6.26;89.83;101577.38;5058065;28;20700;-80
2023/01/03 04:46:38;;;;;;;7.70;7.00;;;;;;;6.23;90.63;101559.19;5057764;28;20236;-80
2023/01/03 04:49:06;;;;;;;7.77;7.07;;;;;;;6.25;91.10;101541.06;5057567;28;20217;-80
2023/01/03 04:51:33;;;;;;;8.70;7.73;;;;;;;6.30;92.27;101529.03;5057856;28;20212;-80
2023/01/03 04:54:00;;;;;;;12.63;9.03;;;;;;;6.31;92.36;101513.50;5058515;28;20205;-81
2023/01/03 04:56:29;;;;;;;10.60;9.67;;;;;;;6.32;92.92;101498.81;5057494;28;20228;-80
2023/01/03 04:58:56;;;;;;;9.33;8.50;;;;;;;6.35;92.84;101491.97;5057062;28;20225;-79
2023/01/03 05:01:23;;;;;;;9.27;8.57;;;;;;;6.38;93.48;101478.16;5056618;28;20259;-78
2023/01/03 05:03:50;;;;;;;10.57;9.57;;;;;;;6.19;95.46;101460.59;5056493;28;20259;-79
2023/01/03 05:06:17;;;;;;;11.77;10.57;;;;;;;6.19;96.84;101414.81;5057196;28;20206;-81
2023/01/03 05:08:44;;;;;;;10.90;9.90;;;;;;;6.08;96.86;101401.66;5057461;28;20226;-79
2023/01/03 05:11:11;;;;;;;11.40;10.20;;;;;;;6.10;98.38;101373.19;5056993;28;20212;-79
2023/01/03 05:13:38;;;;;;;12.07;10.77;;;;;;;6.18;98.50;101352.56;5057439;28;20202;-80
2023/01/03 05:16:06;;;;;;;11.97;10.87;;;;;;;6.33;98.76;101355.38;5057721;28;20263;-80
2023/01/03 05:18:33;;;;;;;11.67;10.57;;;;;;;6.24;98.15;101363.88;5057224;28;20356;-81
2023/01/03 05:26:32;;;;;;;10.90;9.90;;;;;;;6.56;98.41;101368.63;5062420;28;20693;-79
2023/01/03 05:29:00;;;;;;;10.30;9.30;;;;;;;6.55;98.16;101374.66;5057248;28;20229;-80
2023/01/03 05:31:26;;;;;;;11.60;10.50;;;;;;;6.60;97.34;101382.50;5056990;28;20218;-80
2023/01/03 05:33:53;;;;;;;12.37;10.43;;;;;;;6.64;98.29;101392.94;5057237;28;20676;-79
2023/01/03 05:36:19;;;;;;;11.17;10.20;;;;;;;6.36;98.18;101392.59;5057448;28;20209;-80
2023/01/03 05:38:45;;;;;;;11.63;10.63;;;;;;;6.45;97.92;101372.81;5056874;28;20296;-79
2023/01/03 05:41:12;;;;;;;10.77;9.90;;;;;;;6.54;98.16;101372.91;5056545;28;20205;-80
2023/01/03 05:43:39;;;;;;;11.27;10.17;;;;;;;6.59;97.79;101384.22;5057221;28;20279;-80
2023/01/03 05:46:06;;;;;;;11.00;10.10;;;;;;;6.69;97.31;101390.41;5057040;28;20231;-81
2023/01/03 05:48:33;;;;;;;10.67;9.50;;;;;;;6.72;97.24;101406.03;5056554;28;20276;-80
2023/01/03 05:50:59;;;;;;;11.47;10.37;;;;;;;6.74;96.91;101404.31;5056756;28;20205;-79
2023/01/03 05:53:25;;;;;;;11.10;10.10;;;;;;;6.78;97.59;101407.78;5056455;28;20238;-78
2023/01/03 05:55:52;;;;;;;10.90;9.50;;;;;;;6.75;97.26;101406.03;5056685;28;20255;-80
2023/01/03 05:58:19;;;;;;;11.13;10.03;;;;;;;6.82;98.01;101406.97;5057317;28;20276;-78
2023/01/03 06:00:45;;;;;;;10.50;9.50;;;;;;;6.84;97.01;101416.56;5056081;28;20205;-79
2023/01/03 06:03:13;;;;;;;10.00;9.20;;;;;;;6.82;96.61;101423.44;5056276;28;20243;-80
2023/01/03 06:05:39;;;;;;;12.50;8.87;;;;;;;6.77;96.47;101438.06;5056118;28;20209;-80
2023/01/03 06:08:06;;;;;;;10.97;9.97;;;;;;;6.65;96.76;101436.19;5056582;28;20295;-80
2023/01/03 06:10:32;;;;;;;10.47;9.43;;;;;;;6.71;96.77;101441.44;5056205;28;20216;-80
2023/01/03 06:12:58;;;;;;;10.40;9.50;;;;;;;6.79;96.58;101453.66;5056206;28;20587;-79
2023/01/03 06:15:24;;;;;;;10.57;9.73;;;;;;;6.76;95.30;101470.06;5055593;28;20206;-79
2023/01/03 06:18:01;;;;;;;10.27;9.40;;;;;;;6.73;96.21;101481.25;5056272;28;20226;-79
2023/01/03 06:20:29;;;;;;;9.23;8.33;;;;;;;6.79;95.82;101496.06;5055972;28;20292;-81
2023/01/03 06:22:56;;;;;;;9.17;8.37;;;;;;;6.83;95.51;101504.75;5055882;28;20205;-79
2023/01/03 06:25:22;;;;;;;10.00;9.10;;;;;;;6.79;95.44;101513.34;5055913;28;20263;-79
2023/01/03 06:27:49;;;;;;;10.17;9.20;;;;;;;6.74;95.27;101508.97;5056091;28;20233;-81
2023/01/03 06:30:15;;;;;;;9.20;8.43;;;;;;;6.81;95.77;101519.44;5055417;28;20267;-80
2023/01/03 06:32:42;;;;;;;9.40;8.60;;;;;;;6.75;94.50;101521.06;5055956;28;20205;-81
2023/01/03 06:35:09;;;;;;;8.83;8.03;;;;;;;6.70;95.14;101520.16;5050041;28;20206;-80
2023/01/03 06:37:37;;;;;;;9.20;8.30;;;;;;;6.72;94.95;101523.66;5053096;28;20590;-80
2023/01/03 06:40:05;;;;;;;8.70;7.90;;;;;;;6.73;95.33;101521.91;5055782;28;20213;-80
2023/01/03 06:42:44;;;;;;;8.53;7.83;;;;;;;6.71;95.48;101523.63;5055630;28;20209;-80
2023/01/03 06:53:25;;;;;;;7.90;7.20;;;;;;;6.71;94.95;101532.25;5055455;28;20203;-80
2023/01/03 06:55:51;;;;;;;7.13;6.43;;;;;;;6.71;94.23;101540.06;5054635;28;20254;-81
2023/01/03 06:58:18;;;;;;;7.80;7.10;;;;;;;6.67;93.31;101560.75;5054733;28;20255;-81
2023/01/03 07:00:44;;;;;;;7.27;6.67;;;;;;;6.63;93.40;101572.78;5054953;28;20201;-81
2023/01/03 07:03:10;;;;;;;6.93;6.30;;;;;;;6.56;93.72;101586.50;5055161;28;20345;-81
2023/01/03 07:05:37;;;;;;;7.03;6.43;;;;;;;6.60;93.02;101595.22;5054005;28;20225;-80
2023/01/03 07:08:03;;;;;;;7.00;6.40;;;;;;;6.57;93.03;101599.50;5054799;28;20225;-82
2023/01/03 07:10:31;;;;;;;7.47;6.53;;;;;;;6.54;92.89;101611.53;5054485;28;20358;-82
2023/01/03 07:15:44;;;;;;;6.33;5.90;;;;;;;6.42;92.39;101624.31;5054775;28;20247;-78
2023/01/03 07:18:11;;;;;;;6.10;5.60;;;;;;;6.38;92.49;101631.16;5074521;23;20237;-82
2023/01/03 07:20:41;;;;;;;6.03;5.50;;;;;;;6.37;91.51;101645.00;5053475;28;20571;-82
2023/01/03 07:23:07;;;;;;;5.37;4.97;;;;;;;6.38;92.13;101659.69;5055646;28;20206;-81
2023/01/03 07:25:39;;;;;;;6.23;5.73;;;;;;;6.38;91.50;101664.88;5054991;28;20257;-81
2023/01/03 07:28:06;;;;;;;8.07;7.37;;;;;;;6.14;91.56;101671.38;5053710;28;20233;-82
2023/01/03 07:30:36;;;;;;;7.93;7.23;;;;;;;6.08;92.29;101655.69;5054605;28;20259;-83
2023/01/03 07:33:03;;;;;;;6.30;5.80;;;;;;;6.09;92.58;101659.19;5049727;28;20206;-82
2023/01/03 07:35:31;;;;;;;6.50;6.00;;;;;;;6.12;92.17;101657.50;5059583;28;20656;-82
2023/01/03 07:37:57;;;;;;;8.70;7.70;;;;;;;5.98;92.24;101658.94;5074611;28;20278;-82
2023/01/03 07:40:23;;;;;;;7.53;6.93;;;;;;;6.01;92.64;101666.78;5074204;28;20208;-82
2023/01/03 07:45:39;;;;;;;7.17;6.67;;;;;;;5.99;91.53;101689.22;5069885;28;20235;-83
2023/01/03 07:48:06;;;;;;;6.97;6.47;;;;;;;5.97;91.73;101694.38;5067383;28;20221;-81
2023/01/03 07:50:32;;;;;;;7.77;7.07;;;;;;;5.82;92.04;101694.00;5074372;28;20209;-84
2023/01/03 07:52:58;;;;;;;7.80;7.10;;;;;;;5.94;92.29;101688.22;5073555;28;20250;-82
2023/01/03 07:55:25;;;;;;;7.57;6.97;;;;;;;5.97;92.45;101672.78;5074645;28;20578;-83
2023/01/03 07:57:52;;;;;;;7.70;7.00;;;;;;;5.91;91.60;101690.75;5077903;28;20240;-83
2023/01/03 08:00:19;;;;;;;7.77;7.07;;;;;;;6.10;95.88;101640.16;5077906;28;20274;-83
2023/01/03 08:02:45;;;;;;;8.13;7.43;;;;;;;6.10;95.90;101603.88;5077113;28;20257;-83
2023/01/03 08:05:12;;;;;;;7.73;6.93;;;;;;;6.22;98.41;101566.94;5077464;28;20224;-84
2023/01/03 08:07:38;;;;;;;7.03;6.53;;;;;;;6.18;99.14;101534.88;5077037;28;20587;-82
2023/01/03 08:15:37;;;;;;;8.27;7.37;;;;;;;5.95;91.51;101693.47;5074427;28;20350;-80
2023/01/03 08:18:04;;;;;;;8.40;7.60;;;;;;;5.88;91.78;101695.84;5071416;28;20649;-84
2023/01/03 08:20:31;;;;;;;8.73;8.00;;;;;;;5.88;91.59;101707.09;5077769;28;20216;-84
2023/01/03 08:22:59;;;;;;;9.07;8.33;;;;;;;5.82;91.58;101711.28;5069431;28;20232;-84
2023/01/03 08:25:28;;;;;;;9.57;8.77;;;;;;;5.78;91.88;101693.06;5060046;28;20221;-83
2023/01/03 08:27:58;;;;;;;8.73;8.03;;;;;;;5.79;91.75;101693.97;5059064;28;20233;-82
2023/01/03 08:30:24;;;;;;;8.57;7.77;;;;;;;5.75;92.29;101692.16;5058424;28;20641;-83
2023/01/03 08:32:53;;;;;;;9.63;8.63;;;;;;;5.70;92.20;101691.16;5065182;28;20585;-81
2023/01/03 08:35:20;;;;;;;8.73;8.03;;;;;;;5.74;92.11;101685.22;5066556;28;20197;-82
2023/01/03 08:37:48;;;;;;;10.70;9.60;;;;;;;5.61;92.08;101684.09;5069879;28;20598;-82
2023/01/03 08:40:17;;;;;;;10.73;9.73;;;;;;;5.63;92.17;101684.09;5072287;28;20234;-80
2023/01/03 08:42:45;;;;;;;10.23;9.43;;;;;;;5.61;92.28;101684.09;5057640;28;20295;-82
2023/01/03 08:45:16;;;;;;;10.93;9.93;;;;;;;5.64;92.70;101691.03;5059218;28;20230;-83
2023/01/03 08:47:43;;;;;;;10.37;9.40;;;;;;;5.64;92.33;101701.41;5057980;28;20236;-83
2023/01/03 08:50:11;;;;;;;9.47;8.67;;;;;;;5.65;92.34;101704.03;5057142;28;20259;-81
2023/01/03 08:52:37;;;;;;;10.53;9.57;;;;;;;5.59;91.82;101706.50;5057707;28;20256;-81
2023/01/03 08:55:04;;;;;;;10.57;9.37;;;;;;;5.57;92.34;101713.34;5056710;28;20644;-83
2023/01/03 08:57:30;;;;;;;13.00;11.80;;;;;;;5.64;92.98;101704.00;5066503;28;20295;-83
2023/01/03 08:59:57;;;;;;;11.70;10.70;;;;;;;5.66;92.64;101694.53;5077919;28;20246;-81
2023/01/03 09:02:25;;;;;;;12.67;11.43;;;;;;;5.75;94.12;101687.84;5078188;28;20209;-81
2023/01/03 09:04:51;;;;;;;11.03;10.13;;;;;;;5.81;93.73;101686.19;5078607;28;20230;-84
2023/01/03 09:07:17;;;;;;;12.90;11.77;;;;;;;5.83;93.97;101674.16;5078764;28;20251;-82
2023/01/03 09:09:43;;;;;;;13.17;11.87;;;;;;;5.81;93.88;101660.28;5079967;28;20201;-81
2023/01/03 09:12:10;;;;;;;14.93;12.20;;;;;;;5.80;93.99;101655.97;5079152;28;20238;-81
2023/01/03 09:14:36;;;;;;;13.70;11.80;;;;;;;5.73;95.14;101650.66;5079465;28;20197;-83
2023/01/03 09:17:02;;;;;;;14.43;13.10;;;;;;;5.78;94.91;101635.19;5078616;28;20209;-81
2023/01/03 09:19:30;;;;;;;14.90;13.63;;;;;;;5.82;94.57;101638.72;5077948;28;20269;-82
2023/01/03 09:21:56;;;;;;;13.60;12.40;;;;;;;5.92;95.35;101641.53;5078301;28;20212;-83
2023/01/03 09:24:22;;;;;;;13.77;12.47;;;;;;;5.90;95.01;101645.81;5078229;28;20204;-82
2023/01/03 09:26:49;;;;;;;11.97;10.97;;;;;;;5.74;95.65;101644.63;5069355;28;20259;-83
2023/01/03 09:29:15;;;;;;;13.23;12.13;;;;;;;5.83;95.52;101643.97;5073764;28;20223;-83
2023/01/03 09:31:42;;;;;;;12.33;11.33;;;;;;;5.83;94.73;101641.38;5079889;28;20226;-83
2023/01/03 09:34:08;;;;;;;13.60;12.20;;;;;;;5.83;94.95;101651.72;5079181;28;20208;-83
2023/01/03 09:36:37;;;;;;;14.80;13.30;;;;;;;5.85;94.07;101663.00;5078166;28;20269;-82
2023/01/03 09:39:03;;;;;;;13.83;12.53;;;;;;;5.88;94.07;101672.53;5079583;28;20221;-83
2023/01/03 09:41:30;;;;;;;13.60;11.20;;;;;;;5.93;93.71;101689.06;5076608;28;20198;-83
2023/01/03 09:44:00;;;;;;;13.20;11.80;;;;;;;5.95;93.52;101695.19;5062150;28;20680;-83
2023/01/03 09:46:29;;;;;;;13.07;11.87;;;;;;;5.91;93.09;101699.41;5063291;28;20225;-83
2023/01/03 09:48:56;;;;;;;12.97;11.83;;;;;;;5.95;93.36;101702.97;5065643;28;20221;-83
2023/01/03 10:05:42;;;;;;;12.50;11.13;;;;;;;5.92;92.94;101726.16;5077442;28;20598;-82
2023/01/03 10:08:27;;;;;;;14.83;11.93;;;;;;;5.81;93.66;101704.34;5076903;28;20225;-81
2023/01/03 10:11:04;;;;;;;11.80;10.53;;;;;;;5.85;94.31;101686.31;5077149;28;20691;-81
2023/01/03 10:13:46;;;;;;;11.20;9.90;;;;;;;5.86;93.74;101680.28;5077777;28;20212;-82
2023/01/03 10:16:19;;;;;;;15.27;10.80;;;;;;;5.75;93.49;101684.38;5076818;28;20277;-82
2023/01/03 10:19:01;;;;;;;13.23;11.03;;;;;;;5.65;93.17;101687.59;5075938;28;20725;-81
2023/01/03 10:21:37;;;;;;;12.07;9.63;;;;;;;5.76;94.23;101673.16;5075643;28;20263;-80
2023/01/03 10:24:16;;;;;;;11.63;10.63;;;;;;;5.85;93.25;101668.19;5074929;28;20265;-82
2023/01/03 10:26:44;;;;;;;10.53;9.60;;;;;;;5.87;92.57;101718.31;5066023;28;20224;-79
2023/01/03 10:29:13;;;;;;;10.30;9.27;;;;;;;6.03;93.04;101696.22;5067500;28;20807;-81
2023/01/03 10:31:55;;;;;;;11.10;10.10;;;;;;;6.14;92.69;101699.91;5073628;28;20205;-80
2023/01/03 10:34:21;;;;;;;9.57;8.57;;;;;;;6.22;91.71;101715.56;5073534;28;20284;-80
2023/01/03 10:36:48;;;;;;;9.40;8.60;;;;;;;6.33;91.66;101723.59;5074616;28;20200;-80
2023/01/03 10:39:14;;;;;;;8.37;7.57;;;;;;;6.46;91.50;101741.13;5074491;28;20263;-81
2023/01/03 10:41:44;;;;;;;7.60;6.87;;;;;;;6.47;88.97;101781.78;5074379;28;20204;-81
2023/01/03 10:44:23;;;;;;;7.53;6.40;;;;;;;6.48;88.33;101811.16;5074079;28;20201;-81
2023/01/03 10:46:53;;;;;;;8.30;6.80;;;;;;;6.50;88.91;101820.75;5074069;28;20220;-81
2023/01/03 10:49:21;;;;;;;8.33;7.53;;;;;;;6.60;89.00;101819.22;5073789;28;20595;-80
2023/01/03 10:51:56;;;;;;;6.47;5.97;;;;;;;6.48;87.37;101831.91;5076353;28;20231;-83
2023/01/03 10:54:28;;;;;;;8.10;7.30;;;;;;;6.43;89.44;101823.19;5076500;28;20250;-83
2023/01/03 10:56:55;;;;;;;7.67;6.43;;;;;;;6.52;88.92;101793.13;5065162;28;20198;-84
2023/01/03 10:59:24;;;;;;;6.53;5.53;;;;;;;6.61;88.67;101807.97;5055871;28;20284;-82
2023/01/03 11:01:59;;;;;;;6.50;5.90;;;;;;;6.61;88.03;101820.09;5054141;28;20201;-80
2023/01/03 11:04:26;;;;;;;6.40;5.80;;;;;;;6.74;87.73;101822.09;5055017;28;20317;-83
2023/01/03 11:07:02;;;;;;;6.07;5.47;;;;;;;6.70;86.57;101836.72;5054878;28;20233;-82
2023/01/03 11:09:35;;;;;;;6.97;6.20;;;;;;;6.69;86.81;101847.06;5055774;28;20260;-84
2023/01/03 11:12:11;;;;;;;6.17;5.57;;;;;;;6.71;88.31;101822.00;5053359;28;20208;-81
2023/01/03 11:14:37;;;;;;;7.43;6.23;;;;;;;6.55;86.53;101854.56;5055062;28;20217;-82
2023/01/03 11:17:05;;;;;;;6.47;5.63;;;;;;;6.69;86.56;101858.31;5054273;28;20735;-83
2023/01/03 11:19:33;;;;;;;5.50;4.93;;;;;;;6.75;86.01;101861.00;5053334;28;20291;-82
2023/01/03 11:22:09;;;;;;;5.83;5.33;;;;;;;6.87;86.45;101860.38;5055174;28;20903;-80
2023/01/03 11:24:55;;;;;;;4.87;4.33;;;;;;;6.94;85.91;101876.97;5056822;28;20612;-84
2023/01/03 11:27:40;;;;;;;4.33;4.00;;;;;;;6.90;84.56;101890.72;5063593;28;20259;-81
2023/01/03 11:30:17;;;;;;;4.30;4.00;;;;;;;6.92;83.07;101926.25;5056772;28;20205;-83
2023/01/03 11:33:05;;;;;;;5.07;4.20;;;;;;;6.94;83.52;101942.72;5060148;28;20205;-83
2023/01/03 11:35:46;;;;;;;3.80;3.50;;;;;;;6.94;82.60;101971.28;5061010;28;20194;-83
2023/01/03 11:38:27;;;;;;;6.90;3.70;;;;;;;6.90;81.91;101984.19;5058044;28;20221;-81
2023/01/03 11:41:05;;;;;;;3.90;3.50;;;;;;;6.90;80.96;101982.44;5066776;28;20217;-80
2023/01/03 11:43:46;;;;;;;3.67;3.07;;;;;;;6.96;81.33;101998.16;5058684;28;20231;-81
2023/01/03 11:46:30;;;;;;;3.77;3.20;;;;;;;7.07;81.65;101992.31;5063324;28;20224;-79
2023/01/03 11:49:14;;;;;;;3.47;3.23;;;;;;;7.08;81.51;101994.06;5061777;28;20232;-81
2023/01/03 11:51:48;;;;;;;3.20;2.80;;;;;;;7.08;80.15;102020.03;5078361;28;20228;-80
2023/01/03 11:54:36;;;;;;;4.33;2.77;;;;;;;7.12;80.28;102020.13;5078754;28;20209;-80
2023/01/03 11:57:13;;;;;;;4.37;3.10;;;;;;;7.19;80.65;101996.88;5077921;28;20283;-81
2023/01/03 11:59:59;;;;;;;4.07;3.30;;;;;;;7.14;80.82;102007.16;5077356;28;20637;-81
2023/01/03 12:02:55;;;;;;;5.73;2.97;;;;;;;7.16;80.94;102000.28;5074020;28;20262;-79
2023/01/03 12:05:39;;;;;;;4.63;2.67;;;;;;;7.27;81.08;101985.78;5057083;28;20631;-82
2023/01/03 12:08:21;;;;;;;4.73;3.03;;;;;;;7.40;81.12;101983.44;5056582;28;20649;-82
2023/01/03 12:10:54;;;;;;;3.70;2.80;;;;;;;7.54;81.88;101962.03;5055984;28;20202;-80
2023/01/03 12:13:31;;;;;;;4.20;3.00;;;;;;;7.56;81.16;101955.16;5056856;28;20208;-81
2023/01/03 12:16:04;;;;;;;4.07;2.73;;;;;;;7.54;80.03;101959.44;5060689;28;20222;-80
2023/01/03 12:18:41;;;;;;;3.50;2.40;;;;;;;7.59;79.83;101974.25;5068399;28;20651;-81
2023/01/03 12:21:14;;;;;;;3.40;2.60;;;;;;;7.64;79.78;101989.06;5056479;28;20251;-80
2023/01/03 12:23:44;;;;;;;2.93;2.50;;;;;;;7.79;78.71;102001.50;5057012;28;20251;-81
2023/01/03 12:26:14;;;;;;;4.77;2.57;;;;;;;7.90;78.65;102012.94;5056522;28;20225;-79
2023/01/03 12:28:48;;;;;;;2.40;2.10;;;;;;;8.02;78.99;102011.41;5056874;28;20248;-80
2023/01/03 12:31:23;;;;;;;3.07;2.10;;;;;;;8.06;78.23;102003.66;5055732;28;20651;-82
2023/01/03 12:33:58;;;;;;;5.30;2.47;;;;;;;8.16;79.09;102013.38;5056167;28;20205;-82
2023/01/03 12:36:32;;;;;;;2.57;1.83;;;;;;;8.20;77.60;101998.69;5055824;28;20251;-81
2023/01/03 12:39:08;;;;;;;3.03;2.50;;;;;;;8.31;76.99;102024.88;5056960;28;20274;-82
2023/01/03 12:41:42;;;;;;;1.80;1.67;;;;;;;8.28;77.52;102028.28;5055374;28;20209;-82
2023/01/03 12:44:15;;;;;;;3.30;1.53;;;;;;;8.48;77.04;102030.38;5056216;28;20258;-81